• Join FlightAware (Why Join?)
  • Login
  • US Flag 
06:22AM EST


 

Airport Tracker/Info


-or-


 

Live Flight TrackerFlight Track Log ✈ SWA430 ✈ 10-Apr-2013 ✈ KMDW - KRSW

Flight Track Log - Related Links

Times and Time Zones

All times are in EDT time to prevent confusion due to time zone crossing. See the SWA430 flight status page for this flight to view local times or setup timezone preferences in your user account.

Time Position Orientation Groundspeed Altitude Reporting Facility
EDT Latitude Longitude Course Direction KTS MPH feet Rate Location/Type
09:21AM 41.8167 -87.7333 177° South 208 239 2,500  Level Chicago TRACON
09:23AM 41.6733 -87.6100 147° Southeast 276 318 9,900 2,940 Climbing Chicago Center
09:24AM 41.5989 -87.5706 158° South 289 333 12,800 2,220 Climbing Chicago Center
09:25AM 41.5200 -87.5503 169° South 288 331 14,600 2,040 Climbing Chicago Center
09:26AM 40.9731 -87.8736 177° South  Level FlightAware Approximate
09:26AM 41.4442 -87.5706 191° South 291 335 17,000  Level Chicago Center
09:27AM 41.3650 -87.6297 209° Southwest 322 371 17,000 1,140 Level Chicago Center
09:28AM 41.2642 -87.7028 209° Southwest 339 390 19,400 2,220 Climbing Chicago Center
09:29AM 41.1661 -87.7197 187° South 372 428 21,600 1,860 Climbing Chicago Center
09:30AM 41.0583 -87.6950 170° South 391 450 23,300 1,740 Climbing Chicago Center
09:31AM 40.9450 -87.6694 170° South 408 470 25,200 1,680 Climbing Chicago Center
09:32AM 40.8281 -87.6442 171° South 422 486 26,800 1,380 Climbing Chicago Center
09:33AM 40.7083 -87.6169 170° South 435 501 28,100 1,140 Climbing Chicago Center
09:34AM 40.5833 -87.5903 171° South 452 520 29,200 1,200 Climbing Chicago Center
09:35AM 40.4567 -87.5622 170° South 462 532 30,600 1,560 Climbing Chicago Center
09:36AM 40.3050 -87.5303 171° South 460 529 32,500 1,560 Climbing Chicago Center
09:37AM 40.1794 -87.5044 171° South 459 528 33,800 1,260 Climbing Chicago Center
09:38AM 40.0669 -87.5075 181° South 456 525 35,000 600 Climbing Indianapolis Center
09:39AM 39.9408 -87.5103 181° South 452 520 35,000 240 Level Indianapolis Center
09:40AM 39.8156 -87.5128 181° South 451 519 35,600 900 Climbing Indianapolis Center
09:41AM 39.6914 -87.5128 180° South 446 513 36,900 660 Climbing Indianapolis Center
09:42AM 39.5719 -87.4628 162° South 448 516 37,000  Climbing Indianapolis Center
09:43AM 39.4525 -87.4192 164° South 445 512 37,000  Level Indianapolis Center
09:45AM 39.3089 -87.3625 163° South 447 514 37,000  Level Indianapolis Center
09:46AM 39.1889 -87.3189 164° South 446 513 37,000  Level Indianapolis Center
09:47AM 39.0683 -87.2739 164° South 449 517 37,000  Level Indianapolis Center
09:48AM 38.9486 -87.2294 164° South 446 513 37,000  Level Indianapolis Center
09:49AM 38.8275 -87.1847 164° South 450 518 37,000  Level Indianapolis Center
09:50AM 38.7069 -87.1400 164° South 447 514 37,000  Level Indianapolis Center
09:51AM 38.5861 -87.0953 164° South 450 518 37,000  Level Indianapolis Center
09:52AM 38.4653 -87.0508 164° South 448 516 37,000  Level Indianapolis Center
09:53AM 38.3269 -87.0003 164° South 451 519 37,000  Level Indianapolis Center
09:54AM 38.2064 -86.9606 165° South 448 516 37,000  Level Indianapolis Center
09:55AM 38.0928 -86.9164 163° South 450 518 37,000  Level Indianapolis Center
09:56AM 37.9467 -86.8639 164° South 453 521 37,000  Level Indianapolis Center
09:57AM 37.8242 -86.8197 164° South 456 525 37,000  Level Indianapolis Center
09:58AM 37.7022 -86.7750 164° South 455 524 37,000  Level Indianapolis Center
09:59AM 37.5797 -86.7311 164° South 457 526 37,000  Level Indianapolis Center
10:00AM 37.4511 -86.6850 164° South 454 522 37,000  Level Indianapolis Center
10:01AM 37.3706 -86.6589 166° South 459 528 37,000  Level Memphis Center
10:02AM 37.2525 -86.6175 164° South 452 520 37,000  Level Memphis Center
10:03AM 37.1472 -86.5783 163° South 452 520 37,000  Level Memphis Center
10:04AM 37.0292 -86.5344 163° South 442 509 37,000  Level Memphis Center
10:05AM 36.9114 -86.4936 165° South 442 509 37,000  Level Memphis Center
10:06AM 36.7911 -86.4525 165° South 442 509 37,000  Level Memphis Center
10:07AM 36.6753 -86.4092 163° South 442 509 37,000  Level Memphis Center
10:08AM 36.5444 -86.3639 164° South 442 509 37,000  Level Memphis Center
10:09AM 36.4244 -86.3233 165° South 447 514 37,000  Level Memphis Center
10:10AM 36.3042 -86.2803 164° South 447 514 37,000  Level Memphis Center
10:11AM 36.1861 -86.2425 166° South 442 509 37,000  Level Memphis Center
10:12AM 36.0681 -86.1997 164° South 442 509 37,000  Level Memphis Center
10:13AM 35.9500 -86.1594 165° South 442 509 37,000  Level Memphis Center
10:15AM 35.6764 -86.0686 165° South 446 513 37,000  Level Atlanta Center
10:16AM 35.5583 -86.0300 165° South 446 513 37,000  Level Atlanta Center
10:17AM 35.4628 -85.9969 164° South 446 513 37,000  Level Atlanta Center
10:18AM 35.3239 -85.9453 163° South 446 513 37,000  Level Atlanta Center
10:19AM 35.2014 -85.9044 165° South 453 521 37,000  Level Atlanta Center
10:20AM 35.0828 -85.8714 167° South 448 516 37,000  Level Atlanta Center
10:21AM 34.9667 -85.8333 165° South 448 516 37,000  Level Atlanta Center
10:22AM 34.8483 -85.7928 164° South 448 516 37,000  Level Atlanta Center
10:23AM 34.7278 -85.7497 164° South 443 510 37,000  Level Atlanta Center
10:24AM 34.6136 -85.7147 166° South 443 510 37,000  Level Atlanta Center
10:25AM 34.4950 -85.6744 164° South 443 510 37,000  Level Atlanta Center
10:26AM 34.4036 -85.6475 166° South 438 504 37,000  Level Atlanta Center
10:27AM 34.2664 -85.6022 165° South 426 490 37,000  Level Atlanta Center
10:28AM 34.1458 -85.5625 165° South 433 498 37,000  Level Atlanta Center
10:29AM 34.0294 -85.5253 165° South 438 504 37,000  Level Atlanta Center
10:30AM 33.9131 -85.4881 165° South 433 498 37,000  Level Atlanta Center
10:31AM 33.7925 -85.4486 165° South 433 498 37,000  Level Atlanta Center
10:32AM 33.6739 -85.4117 165° South 433 498 37,000  Level Atlanta Center
10:33AM 33.5533 -85.3725 165° South 444 511 37,000  Level Atlanta Center
10:34AM 33.4306 -85.3308 164° South 444 511 37,000  Level Atlanta Center
10:35AM 33.3119 -85.2942 166° South 451 519 37,000  Level Atlanta Center
10:36AM 33.1914 -85.2550 165° South 451 519 37,000  Level Atlanta Center
10:37AM 33.0706 -85.2186 166° South 445 512 37,000  Level Atlanta Center
10:38AM 32.9708 -85.1828 163° South 445 512 37,000  Level Atlanta Center
10:39AM 32.8417 -85.1417 165° South 450 518 37,000  Level Atlanta Center
10:40AM 32.7211 -85.0906 160° South 455 524 37,000  Level Atlanta Center
10:41AM 32.6067 -85.0522 164° South 455 524 37,000  Level Atlanta Center
10:42AM 32.4839 -85.0092 164° South 450 518 37,000  Level Atlanta Center
10:43AM 32.3608 -84.9708 165° South 450 518 37,000  Level Atlanta Center
10:45AM 32.1611 -84.9025 164° South 458 527 37,000  Level Jacksonville Center
10:46AM 32.0428 -84.8631 164° South 453 521 37,000  Level Jacksonville Center
10:47AM 31.9181 -84.8236 165° South 453 521 37,000  Level Jacksonville Center
10:48AM 31.7956 -84.7819 164° South 453 521 37,000  Level Jacksonville Center
10:49AM 31.6728 -84.7431 165° South 453 521 37,000  Level Jacksonville Center
10:50AM 31.5481 -84.7014 164° South 453 521 37,000  Level Jacksonville Center
10:51AM 31.4256 -84.6625 165° South 459 528 37,000  Level Jacksonville Center
10:52AM 31.3008 -84.6117 161° South 465 535 37,000  Level Jacksonville Center
10:53AM 31.1828 -84.5464 155° Southeast 465 535 37,000  Level Jacksonville Center
10:54AM 31.0647 -84.4786 154° Southeast 470 541 37,000  Level Jacksonville Center
10:55AM 30.9464 -84.4139 155° Southeast 470 541 37,000  Level Jacksonville Center
10:56AM 30.8303 -84.3489 154° Southeast 476 548 37,000  Level Jacksonville Center
10:57AM 30.7100 -84.2844 155° Southeast 471 542 37,000  Level Jacksonville Center
10:58AM 30.5936 -84.2200 155° Southeast 471 542 37,000  Level Jacksonville Center
10:59AM 30.4669 -84.1483 154° Southeast 465 535 37,000  Level Jacksonville Center
11:00AM 30.3508 -84.0864 155° Southeast 465 535 37,000  Level Jacksonville Center
11:01AM 30.2322 -84.0225 155° Southeast 465 535 37,000  Level Jacksonville Center
11:02AM 30.1139 -83.9611 156° South 465 535 37,000  Level Jacksonville Center
11:03AM 29.9953 -83.8975 155° Southeast 465 535 37,000  Level Jacksonville Center
11:04AM 29.8789 -83.8317 154° Southeast 465 535 37,000  Level Jacksonville Center
11:05AM 29.7603 -83.7706 156° South 465 535 37,000  Level Jacksonville Center
11:06AM 29.6397 -83.7050 155° Southeast 465 535 37,000  Level Jacksonville Center
11:07AM 29.5272 -83.6444 155° Southeast 474 545 37,000  Level Jacksonville Center
11:08AM 29.4067 -83.5792 155° Southeast 479 551 37,000  Level Jacksonville Center
11:09AM 29.2817 -83.5139 156° South 479 551 37,000  Level Jacksonville Center
11:10AM 29.1608 -83.4489 155° Southeast 479 551 37,000  Level Jacksonville Center
11:11AM 29.0358 -83.3842 156° South 479 551 37,000  Level Jacksonville Center
11:12AM 28.9089 -83.3242 158° South 479 551 37,000  Level Jacksonville Center
11:13AM 28.7756 -83.2764 163° South 491 565 37,000  Level Jacksonville Center
11:14AM 28.6419 -83.2261 162° South 501 577 37,000 -1,080 Level Jacksonville Center
11:15AM 28.5086 -83.1783 163° South 501 577 34,900 -2,220 Descending Jacksonville Center
11:16AM 28.3689 -83.1261 162° South 496 571 32,600 -2,280 Descending Jacksonville Center
11:18AM 28.0828 -83.0214 162° South 455 524 27,100 -1,680 Descending Miami Center
11:19AM 27.9744 -82.9731 158° South 430 495 27,000 -60 Descending Miami Center
11:20AM 27.8661 -82.9203 157° South 418 481 27,000 -240 Level Miami Center
11:21AM 27.7583 -82.8536 151° Southeast 423 487 26,600 -780 Descending Miami Center
11:22AM 27.6444 -82.7844 152° Southeast 423 487 25,500 -1,080 Descending Miami Center
11:23AM 27.5406 -82.7228 152° Southeast 423 487 24,500 -1,020 Descending Miami Center
11:24AM 27.4406 -82.6639 152° Southeast 415 478 23,500 -1,260 Descending Miami Center
11:25AM 27.3531 -82.6106 152° Southeast 409 471 22,000 -1,740 Descending Miami Center
11:26AM 27.2550 -82.5567 154° Southeast 402 463 20,100 -2,100 Descending Miami Center
11:27AM 27.1553 -82.4933 151° Southeast 395 455 17,800 -2,160 Descending Miami Center
11:28AM 27.0633 -82.4422 154° Southeast 376 433 15,800 -1,980 Descending Miami Center
11:29AM 26.9736 -82.3867 151° Southeast 370 426 13,900 -1,920 Descending Miami Center
11:30AM 26.8900 -82.3386 153° Southeast 359 413 12,000 -1,980 Descending Miami Center
11:31AM 26.8061 -82.2881 152° Southeast 349 402 10,000 -1,260 Descending Miami Center
11:32AM 26.7372 -82.2361 146° Southeast 322 371 9,500 -1,140 Descending Miami Center
11:33AM 26.6725 -82.1819 143° Southeast 300 345 7,800 -1,500 Descending Miami Center
11:34AM 26.6094 -82.1350 146° Southeast 287 330 6,600 -1,200 Descending Miami Center
11:35AM 26.5508 -82.0836 142° Southeast 276 318 5,500 -1,320 Descending Miami Center
11:36AM 26.5092 -82.0192 126° Southeast 262 302 4,000 -1,320 Descending Miami Center
11:37AM 26.4717 -81.9550 123° Southeast 256 295 2,900 -1,140 Descending Miami Center
11:39AM 26.4910 -81.8064 50° Northeast  Level FlightAware Approximate
11:46AM 26.5333 -81.7500 50° Northeast  Level FlightAware Approximate
11:47AM 26.5362 -81.7552 50° Northeast  Level Estimated